Time;durP1;ratioP1;P1;durP2;ratioP2;P2;SDS_P1;SDS_P2;PMS_P1;PMS_P2;Temp;Humidity;BMP_temperature;BMP_pressure;BME280_temperature;BME280_humidity;BME280_pressure;Samples;Min_cycle;Max_cycle;Signal;HPM_P1;HPM_P2
2022/12/19 00:00:33;;;;;;;;;19.00;17.00;;;;;8.44;76.94;-19438.56;4997939;28;45686;-87
2022/12/19 00:02:58;;;;;;;;;18.00;16.33;;;;;8.32;76.40;-19435.44;5002569;28;45715;-85
2022/12/19 00:05:23;;;;;;;;;22.00;20.33;;;;;8.46;76.16;-19439.09;4998022;28;45812;-87
2022/12/19 00:07:49;;;;;;;;;20.33;18.33;;;;;8.63;75.95;-19443.69;4997867;28;45431;-88
2022/12/19 00:10:14;;;;;;;;;19.00;17.33;;;;;8.25;76.15;-19433.53;4995867;28;46814;-91
2022/12/19 00:12:40;;;;;;;;;21.67;19.00;;;;;8.44;76.54;-19438.69;4994035;28;45530;-86
2022/12/19 00:15:06;;;;;;;;;19.00;19.00;;;;;8.08;76.62;-19428.94;4992627;28;45349;-87
2022/12/19 00:17:31;;;;;;;;;21.00;17.33;;;;;8.40;76.69;-19437.59;4998576;28;45495;-85
2022/12/19 00:19:57;;;;;;;;;18.33;16.00;;;;;8.20;76.84;-19432.31;4989464;28;45486;-86
2022/12/19 00:22:22;;;;;;;;;20.67;18.00;;;;;7.97;76.83;-19426.25;5009273;28;45455;-88
2022/12/19 00:24:48;;;;;;;;;21.33;19.67;;;;;8.68;76.76;-19444.91;4997101;28;45439;-88
2022/12/19 00:27:13;;;;;;;;;20.33;17.00;;;;;8.18;76.42;-19431.66;4992138;28;45491;-89
2022/12/19 00:29:38;;;;;;;;;18.00;15.00;;;;;8.54;76.59;-19441.25;4997426;28;45451;-87
2022/12/19 00:32:04;;;;;;;;;14.00;14.00;;;;;8.73;76.44;-19446.13;4995621;28;45499;-86
2022/12/19 00:34:29;;;;;;;;;16.67;15.00;;;;;8.34;76.70;-19435.84;4998808;28;45489;-86
2022/12/19 00:36:54;;;;;;;;;13.33;13.33;;;;;8.37;76.60;-19436.78;4997863;28;45483;-86
2022/12/19 00:39:20;;;;;;;;;11.00;7.67;;;;;8.11;76.20;-19429.75;4997229;28;45640;-86
2022/12/19 00:41:45;;;;;;;;;16.00;15.00;;;;;8.53;75.93;-19440.84;4996405;28;45580;-87
2022/12/19 00:44:13;;;;;;;;;14.67;14.67;;;;;8.81;76.27;-19448.28;4992467;28;45556;-86
2022/12/19 00:46:38;;;;;;;;;18.00;17.33;;;;;8.67;76.26;-19444.63;4990251;28;45915;-87
2022/12/19 00:49:03;;;;;;;;;18.33;18.33;;;;;8.78;76.17;-19447.63;4983474;28;47651;-87
2022/12/19 00:51:32;;;;;;;;;15.33;15.33;;;;;8.86;76.35;-19449.63;5005427;28;46174;-87
2022/12/19 00:53:58;;;;;;;;;17.00;13.33;;;;;8.90;76.71;-19450.59;4995665;28;45745;-86
2022/12/19 00:56:29;;;;;;;;;18.33;17.00;;;;;8.53;76.40;-19441.00;5005056;28;45596;-86
2022/12/19 00:58:56;;;;;;;;;19.00;16.67;;;;;8.92;75.90;-19451.25;5009377;28;46383;-86
2022/12/19 01:01:34;;;;;;;;;16.00;15.00;;;;;8.94;75.42;-19451.66;4989568;28;45743;-85
2022/12/19 01:04:04;;;;;;;;;20.00;20.00;;;;;8.86;76.37;-19449.78;4989953;28;45438;-85
2022/12/19 01:06:29;;;;;;;;;17.67;17.67;;;;;8.92;76.43;-19451.13;4977910;28;45598;-85
2022/12/19 01:08:54;;;;;;;;;18.00;15.33;;;;;8.35;76.02;-19436.13;4993727;28;45977;-85
2022/12/19 01:14:04;;;;;;;;;14.33;12.67;;;;;8.90;75.74;-19450.59;4996098;28;45334;-85
2022/12/19 01:16:30;;;;;;;;;16.33;14.33;;;;;8.71;76.18;-19445.72;4993280;28;45601;-85
2022/12/19 01:18:55;;;;;;;;;16.00;15.67;;;;;8.54;76.33;-19441.13;4992038;28;46935;-85
2022/12/19 01:21:20;;;;;;;;;10.67;9.67;;;;;8.91;75.80;-19450.84;4997634;28;45472;-86
2022/12/19 01:23:46;;;;;;;;;11.33;11.33;;;;;9.06;76.08;-19455.03;4979559;28;45700;-85
2022/12/19 01:26:11;;;;;;;;;16.00;14.67;;;;;9.01;75.69;-19453.69;4997296;28;45484;-85
2022/12/19 01:28:36;;;;;;;;;14.67;10.67;;;;;8.80;75.39;-19448.16;4995129;28;45403;-85
2022/12/19 01:31:05;;;;;;;;;12.67;12.33;;;;;9.09;76.42;-19455.72;4996595;28;45595;-84
2022/12/19 01:33:30;;;;;;;;;14.33;14.33;;;;;8.78;75.99;-19447.63;4995421;28;45596;-85
2022/12/19 01:35:56;;;;;;;;;13.67;12.67;;;;;9.07;75.90;-19455.31;4996827;28;45336;-84
2022/12/19 01:38:21;;;;;;;;;14.67;12.67;;;;;8.61;75.57;-19443.00;4985739;28;46756;-85
2022/12/19 01:40:55;;;;;;;;;14.00;12.33;;;;;8.55;75.68;-19441.41;4996860;28;45418;-85
2022/12/19 01:43:23;;;;;;;;;16.00;13.33;;;;;9.11;75.17;-19456.13;5009881;28;45433;-85
2022/12/19 01:46:13;;;;;;;;;12.33;12.33;;;;;9.01;75.66;-19453.56;4995104;28;45464;-85
2022/12/19 01:48:42;;;;;;;;;19.33;19.00;;;;;8.96;75.70;-19452.34;4990547;28;45396;-85
2022/12/19 01:51:21;;;;;;;;;12.00;11.33;;;;;9.01;75.36;-19453.69;4995580;28;45432;-84
2022/12/19 01:53:57;;;;;;;;;13.33;12.00;;;;;9.09;75.58;-19455.72;4976664;28;45538;-85
2022/12/19 01:56:33;;;;;;;;;14.33;14.33;;;;;8.62;75.14;-19443.41;4965508;28;45448;-86
2022/12/19 01:59:05;;;;;;;;;13.67;11.67;;;;;8.59;75.56;-19442.47;4978766;28;46438;-86
2022/12/19 02:01:30;;;;;;;;;18.33;16.00;;;;;9.03;75.66;-19454.09;4988300;28;45515;-87
2022/12/19 02:03:58;;;;;;;;;9.33;9.33;;;;;8.73;75.53;-19446.25;4998608;28;45498;-87
2022/12/19 02:06:26;;;;;;;;;16.00;15.00;;;;;8.44;76.25;-19438.56;4992410;28;45366;-86
2022/12/19 02:08:52;;;;;;;;;14.33;14.00;;;;;9.11;76.30;-19456.13;4989243;28;45438;-87
2022/12/19 02:11:18;;;;;;;;;11.67;10.00;;;;;8.84;75.99;-19449.09;4995652;28;45456;-87
2022/12/19 02:13:44;;;;;;;;;15.33;13.33;;;;;9.09;76.51;-19455.72;5003856;28;45460;-87
2022/12/19 02:16:41;;;;;;;;;13.67;12.00;;;;;8.83;76.44;-19448.81;4967979;28;45415;-87
2022/12/19 02:19:36;;;;;;;;;13.00;11.67;;;;;8.75;76.57;-19446.78;4989900;28;46604;-88
2022/12/19 02:22:59;;;;;;;;;18.00;14.00;;;;;9.14;76.64;-19457.06;4979597;28;45422;-87
2022/12/19 02:26:06;;;;;;;;;11.67;11.67;;;;;8.92;76.29;-19451.25;4934334;28;45484;-87
2022/12/19 02:28:42;;;;;;;;;12.33;12.33;;;;;8.49;76.55;-19439.91;4933314;28;45459;-87
2022/12/19 02:31:20;;;;;;;;;13.00;11.33;;;;;9.15;76.78;-19457.19;4927184;28;48340;-87
2022/12/19 02:33:54;;;;;;;;;15.33;11.33;;;;;9.23;77.17;-19459.50;4942373;28;45487;-86
2022/12/19 02:36:35;;;;;;;;;18.33;14.00;;;;;8.98;79.08;-19092.53;4912140;28;45903;-87
2022/12/19 02:39:17;;;;;;;;;16.00;15.00;;;;;8.91;79.25;-19381.91;4936024;28;45346;-87
2022/12/19 02:41:56;;;;;;;;;12.67;12.67;;;;;9.07;78.84;-19455.19;4918978;28;47269;-87
2022/12/19 02:44:50;;;;;;;;;12.67;11.67;;;;;9.27;79.06;-19460.59;4934229;28;46382;-87
2022/12/19 02:47:16;;;;;;;;;12.67;12.33;;;;;9.11;79.49;-18672.88;4914923;28;45511;-87
2022/12/19 02:49:41;;;;;;;;;11.33;11.33;;;;;9.05;79.25;-19060.88;4918801;28;45689;-87
2022/12/19 02:52:31;;;;;;;;;13.67;11.67;;;;;9.02;79.78;-18232.09;4941224;28;48346;-87
2022/12/19 02:55:10;;;;;;;;;8.33;8.33;;;;;9.23;79.44;-18554.69;4928172;28;45460;-87
2022/12/19 02:58:03;;;;;;;;;9.33;9.00;;;;;9.30;79.21;-19343.38;4971950;28;45509;-86
2022/12/19 03:00:35;;;;;;;;;11.67;11.67;;;;;8.80;78.18;-19448.16;4976814;28;45296;-85
2022/12/19 03:03:03;;;;;;;;;12.00;11.00;;;;;9.35;78.44;-19462.59;4970264;28;45858;-85
2022/12/19 03:05:38;;;;;;;;;14.00;11.33;;;;;9.39;78.98;-19463.56;4974463;28;45570;-85
2022/12/19 03:08:06;;;;;;;;;11.33;10.33;;;;;9.33;79.11;-19364.56;4975663;28;45587;-85
2022/12/19 03:10:45;;;;;;;;;9.00;9.00;;;;;8.80;79.59;-17775.59;4975397;28;45549;-86
2022/12/19 03:13:18;;;;;;;;;12.00;10.00;;;;;9.22;80.28;-15310.13;4975844;28;46186;-85
2022/12/19 03:15:44;;;;;;;;;9.00;9.00;;;;;8.77;80.84;-13016.97;4975432;28;45347;-85
2022/12/19 03:18:10;;;;;;;;;9.33;9.33;;;;;9.35;80.84;-12731.69;4975909;28;45453;-86
2022/12/19 03:20:41;;;;;;;;;13.00;10.00;;;;;9.37;80.19;-15085.78;4973954;28;45810;-86
2022/12/19 03:23:07;;;;;;;;;6.67;6.67;;;;;9.41;79.95;-15430.09;4975499;28;45560;-86
2022/12/19 03:25:33;;;;;;;;;9.67;8.33;;;;;8.63;80.32;-11757.53;4991181;28;45545;-85
2022/12/19 03:28:06;;;;;;;;;8.00;8.00;;;;;9.08;80.55;-11130.81;4975038;28;45599;-86
2022/12/19 03:30:34;;;;;;;;;8.00;8.00;;;;;9.13;81.26;-10730.72;4979155;28;45522;-85
2022/12/19 03:33:01;;;;;;;;;10.33;9.67;;;;;9.57;80.54;-11905.16;4975247;28;47353;-85
2022/12/19 03:35:30;;;;;;;;;10.00;10.00;;;;;8.79;80.23;-12929.53;4974849;28;45535;-86
2022/12/19 03:38:00;;;;;;;;;10.33;9.67;;;;;9.37;80.65;-12553.66;4973797;28;45764;-86
2022/12/19 03:40:27;;;;;;;;;10.67;9.67;;;;;9.12;81.02;-9965.50;4975566;28;45487;-86
2022/12/19 03:43:09;;;;;;;;;12.33;11.67;;;;;9.20;80.62;-11292.59;4974692;28;46834;-86
2022/12/19 03:45:44;;;;;;;;;14.33;11.00;;;;;9.11;80.70;-12092.38;4985151;28;45556;-86
2022/12/19 03:48:16;;;;;;;;;14.67;12.33;;;;;9.14;80.31;-13079.75;4995067;28;45478;-86
2022/12/19 03:50:52;;;;;;;;;12.33;10.00;;;;;9.39;80.17;-15796.41;4994415;28;45435;-85
2022/12/19 03:53:33;;;;;;;;;12.67;12.67;;;;;9.67;80.17;-15982.94;4994084;28;46543;-85
2022/12/19 03:56:08;;;;;;;;;13.00;10.00;;;;;9.23;79.93;-16087.38;4978872;28;45404;-85
2022/12/19 03:58:39;;;;;;;;;13.00;11.00;;;;;9.57;79.93;-17499.47;4998073;28;45324;-87
2022/12/19 04:01:06;;;;;;;;;10.67;10.67;;;;;8.97;79.99;-17291.97;4997117;28;45478;-87
2022/12/19 04:03:31;;;;;;;;;7.33;7.33;;;;;9.17;80.12;-16099.00;4997841;28;45580;-86
2022/12/19 04:06:00;;;;;;;;;10.33;9.00;;;;;8.97;79.51;-18419.13;4995111;28;45340;-86
2022/12/19 04:08:29;;;;;;;;;12.33;10.67;;;;;9.22;80.17;-15627.72;4994154;28;45455;-87
2022/12/19 04:11:00;;;;;;;;;13.33;11.00;;;;;9.39;79.96;-15948.78;4980052;28;45453;-87
2022/12/19 04:13:35;;;;;;;;;11.33;10.00;;;;;9.45;79.90;-15777.00;4996936;28;45658;-86
2022/12/19 04:16:09;;;;;;;;;11.00;10.33;;;;;9.77;79.78;-17984.38;4997807;28;45376;-86
2022/12/19 04:18:37;;;;;;;;;10.33;10.33;;;;;9.77;79.78;-16731.75;4998345;28;45399;-88
2022/12/19 04:21:16;;;;;;;;;12.00;11.00;;;;;9.63;80.00;-16620.09;4998065;28;45573;-88
2022/12/19 04:23:56;;;;;;;;;11.00;10.00;;;;;9.60;79.85;-17851.34;4995493;28;47447;-85
2022/12/19 04:26:23;;;;;;;;;11.00;9.67;;;;;9.76;79.79;-17219.72;4976933;28;46243;-86
2022/12/19 04:29:01;;;;;;;;;13.67;10.67;;;;;9.10;79.79;-17568.50;4997561;28;45687;-87
2022/12/19 04:31:27;;;;;;;;;12.00;11.00;;;;;9.44;79.90;-16409.50;4997616;28;45969;-86
2022/12/19 04:33:52;;;;;;;;;9.67;9.33;;;;;9.22;79.78;-17496.53;4996353;28;45555;-87
2022/12/19 04:36:17;;;;;;;;;12.67;10.00;;;;;9.47;80.08;-17429.97;4997002;28;45423;-87
2022/12/19 04:38:43;;;;;;;;;10.00;10.00;;;;;9.78;80.46;-16388.34;4977164;28;45495;-87
2022/12/19 04:41:08;;;;;;;;;13.33;11.00;;;;;9.62;80.31;-16139.44;4977534;28;45372;-86
2022/12/19 04:43:34;;;;;;;;;8.33;8.00;;;;;9.60;79.56;-17084.41;4995895;28;48228;-87
2022/12/19 04:45:59;;;;;;;;;10.00;9.00;;;;;9.04;79.70;-17079.47;4977121;28;45695;-87
2022/12/19 04:48:25;;;;;;;;;10.00;10.00;;;;;9.73;80.84;-14914.38;4977291;28;45320;-87
2022/12/19 04:50:50;;;;;;;;;10.00;8.00;;;;;9.55;80.38;-15440.50;4991471;28;45274;-86
2022/12/19 04:53:16;;;;;;;;;12.00;9.00;;;;;9.26;80.35;-14871.94;4980481;28;47265;-86
2022/12/19 04:55:41;;;;;;;;;11.00;9.67;;;;;9.58;80.40;-16117.91;4995430;28;45745;-86
2022/12/19 04:58:06;;;;;;;;;13.00;12.00;;;;;9.06;80.08;-17694.09;4995032;28;45911;-86
2022/12/19 05:00:33;;;;;;;;;13.00;11.00;;;;;9.62;80.12;-16258.38;4996538;28;45741;-86
2022/12/19 05:02:58;;;;;;;;;10.33;9.00;;;;;9.54;80.03;-16938.44;4997277;28;46347;-87
2022/12/19 05:05:24;;;;;;;;;15.00;12.00;;;;;9.81;80.09;-16797.13;4995060;28;45948;-86
2022/12/19 05:07:50;;;;;;;;;11.67;11.67;;;;;9.79;79.82;-17687.84;4989867;28;45500;-87
2022/12/19 05:10:15;;;;;;;;;11.67;10.00;;;;;9.84;80.07;-16746.22;4997604;28;45453;-87
2022/12/19 05:12:41;;;;;;;;;14.67;11.33;;;;;9.59;80.18;-16136.22;4981026;28;47944;-87
2022/12/19 05:15:07;;;;;;;;;12.67;9.00;;;;;9.35;80.25;-15983.97;4974724;28;46009;-86
2022/12/19 05:17:32;;;;;;;;;10.67;9.00;;;;;9.89;80.40;-16106.38;4994736;28;45412;-86
2022/12/19 05:19:58;;;;;;;;;9.67;8.00;;;;;9.65;79.73;-18082.34;4995497;28;45773;-86
2022/12/19 05:22:23;;;;;;;;;11.67;9.00;;;;;9.76;80.19;-16615.25;4996759;28;45550;-86
2022/12/19 05:24:48;;;;;;;;;10.00;10.00;;;;;9.90;80.17;-16576.94;5004242;28;45382;-86
2022/12/19 05:27:14;;;;;;;;;12.00;10.33;;;;;9.52;80.55;-15137.84;4993058;28;45425;-86
2022/12/19 05:29:39;;;;;;;;;13.67;11.00;;;;;9.86;80.23;-16676.81;4996535;28;45515;-86
2022/12/19 05:32:04;;;;;;;;;13.00;12.67;;;;;9.95;80.53;-14561.78;4987004;28;47048;-86
2022/12/19 05:34:30;;;;;;;;;10.67;9.00;;;;;9.94;80.39;-15960.13;4995917;28;45396;-86
2022/12/19 05:36:55;;;;;;;;;12.00;8.67;;;;;9.58;80.19;-16120.63;4978877;28;45684;-86
2022/12/19 05:39:20;;;;;;;;;9.00;8.33;;;;;9.91;80.53;-15763.19;4996653;28;45507;-86
2022/12/19 05:41:46;;;;;;;;;12.67;10.33;;;;;9.27;80.19;-15305.88;4996459;28;45612;-86
2022/12/19 05:44:11;;;;;;;;;11.33;8.33;;;;;9.70;80.58;-14533.97;4994894;28;45522;-86
2022/12/19 05:46:36;;;;;;;;;11.33;11.33;;;;;9.72;80.44;-14270.72;4996840;28;45258;-86
2022/12/19 05:49:02;;;;;;;;;10.67;10.67;;;;;9.62;80.44;-14449.69;4995439;28;45628;-85
2022/12/19 05:51:27;;;;;;;;;9.00;9.00;;;;;9.85;80.30;-16015.09;4996851;28;45468;-85
2022/12/19 05:53:53;;;;;;;;;9.67;7.00;;;;;9.70;80.50;-14368.47;4995299;28;45443;-85
2022/12/19 05:56:21;;;;;;;;;16.33;13.67;;;;;9.63;80.28;-14897.03;4996920;28;45624;-86
2022/12/19 05:58:47;;;;;;;;;16.00;12.00;;;;;9.82;80.90;-14393.88;4995035;28;45475;-86
2022/12/19 06:01:19;;;;;;;;;12.33;11.00;;;;;9.22;80.71;-13938.81;4995558;28;46362;-86
2022/12/19 06:03:45;;;;;;;;;9.00;9.00;;;;;9.75;80.59;-14744.19;4990740;28;45952;-87
2022/12/19 06:06:13;;;;;;;;;10.00;10.00;;;;;9.80;81.02;-13677.47;4994117;28;45537;-87
2022/12/19 06:08:40;;;;;;;;;12.67;11.33;;;;;9.81;80.88;-12772.56;4996236;28;45372;-86
2022/12/19 06:11:07;;;;;;;;;10.00;10.00;;;;;9.69;80.49;-13706.56;4985036;28;47393;-86
2022/12/19 06:13:33;;;;;;;;;15.00;11.67;;;;;8.60;80.53;-14002.78;4995399;28;45396;-85
2022/12/19 06:16:02;;;;;;;;;12.33;11.00;;;;;9.81;80.59;-13894.81;4994977;28;45376;-86
2022/12/19 06:18:30;;;;;;;;;11.33;9.33;;;;;9.81;81.11;-10480.38;4995135;28;45514;-85
2022/12/19 06:21:00;;;;;;;;;14.67;10.00;;;;;9.55;81.18;-11493.78;4983917;28;47365;-86
2022/12/19 06:23:26;;;;;;;;;12.67;10.67;;;;;9.54;81.15;-10885.81;5001228;28;45483;-86
2022/12/19 06:25:54;;;;;;;;;9.00;9.00;;;;;9.66;80.83;-11270.19;4994940;28;45545;-85
2022/12/19 06:28:19;;;;;;;;;12.67;10.33;;;;;9.34;80.73;-12992.53;5001071;28;45536;-86
2022/12/19 06:30:45;;;;;;;;;9.33;7.67;;;;;9.13;80.81;-12800.66;4997974;28;47926;-85
2022/12/19 06:33:10;;;;;;;;;10.33;9.00;;;;;9.16;80.34;-15221.03;4994882;28;45330;-86
2022/12/19 06:35:36;;;;;;;;;10.67;7.33;;;;;9.57;80.34;-14546.94;4982330;28;45355;-85
2022/12/19 06:38:01;;;;;;;;;11.00;8.33;;;;;9.89;80.26;-16610.41;4995202;28;45500;-85
2022/12/19 06:43:10;;;;;;;;;8.33;8.33;;;;;9.49;80.14;-17905.44;4994341;28;45506;-86
2022/12/19 06:45:36;;;;;;;;;9.33;8.67;;;;;9.64;79.75;-18714.63;4995137;28;45408;-86
2022/12/19 06:48:01;;;;;;;;;8.33;7.33;;;;;9.71;80.06;-18014.00;4994466;28;45527;-86
2022/12/19 06:50:26;;;;;;;;;8.00;8.00;;;;;9.82;80.34;-17792.00;4984201;28;47333;-85
2022/12/19 06:52:52;;;;;;;;;8.33;8.33;;;;;9.83;80.03;-18739.94;4995412;28;45381;-87
2022/12/19 06:55:17;;;;;;;;;8.00;8.00;;;;;9.25;80.06;-17437.78;4994749;28;45490;-87
2022/12/19 06:57:45;;;;;;;;;11.00;9.00;;;;;9.23;80.30;-15542.63;4993628;28;45393;-91
2022/12/19 07:00:14;;;;;;;;;10.33;7.67;;;;;9.19;80.08;-17645.38;4992517;28;45642;-89
2022/12/19 07:02:43;;;;;;;;;11.00;9.67;;;;;8.94;79.86;-17851.09;4993096;28;46263;-87
2022/12/19 07:05:09;;;;;;;;;8.67;8.00;;;;;9.86;80.12;-17963.44;4995463;28;45692;-87
2022/12/19 07:07:35;;;;;;;;;8.67;8.33;;;;;9.76;80.27;-17508.91;4992596;28;45388;-86
2022/12/19 07:10:01;;;;;;;;;7.00;7.00;;;;;9.61;80.21;-17394.53;4994635;28;45413;-86
2022/12/19 07:12:26;;;;;;;;;9.67;9.67;;;;;9.55;80.30;-17075.53;4996705;28;45411;-87
2022/12/19 07:14:51;;;;;;;;;8.33;8.33;;;;;9.48;80.14;-16766.63;4995197;28;45522;-85
2022/12/19 07:17:18;;;;;;;;;11.00;8.00;;;;;9.62;80.03;-17745.97;4992452;28;45571;-86
2022/12/19 07:19:44;;;;;;;;;7.00;6.00;;;;;9.67;80.06;-16099.28;4995790;28;45670;-87
2022/12/19 07:22:09;;;;;;;;;10.00;8.00;;;;;9.37;80.00;-17050.81;4992762;28;45493;-85
2022/12/19 07:24:36;;;;;;;;;9.00;9.00;;;;;9.18;80.26;-16589.75;4992360;28;45378;-85
2022/12/19 07:27:02;;;;;;;;;8.33;8.00;;;;;9.81;80.46;-15409.50;4995242;28;45383;-85
2022/12/19 07:29:27;;;;;;;;;8.00;7.00;;;;;9.93;79.66;-18677.94;4996308;28;46130;-85
2022/12/19 07:31:53;;;;;;;;;6.33;6.33;;;;;9.93;80.18;-17768.72;4996502;28;45418;-85
2022/12/19 07:34:18;;;;;;;;;8.00;6.67;;;;;9.13;79.75;-18838.47;4998828;28;45304;-85
2022/12/19 07:36:43;;;;;;;;;13.00;10.00;;;;;9.48;79.63;-18351.88;4998061;28;45582;-84
2022/12/19 07:39:09;;;;;;;;;8.00;8.00;;;;;9.30;79.61;-19322.72;4998355;28;45328;-84
2022/12/19 07:41:38;;;;;;;;;11.00;9.00;;;;;9.72;79.70;-19421.34;4998426;28;45347;-84
2022/12/19 07:44:05;;;;;;;;;8.00;8.00;;;;;9.77;79.68;-19412.38;4997578;28;45471;-85
2022/12/19 07:46:31;;;;;;;;;7.33;7.33;;;;;9.75;79.12;-19473.13;4998873;28;45465;-85
2022/12/19 07:48:56;;;;;;;;;10.00;9.33;;;;;9.76;79.45;-19473.28;4995889;28;46443;-85
2022/12/19 07:51:21;;;;;;;;;9.00;7.33;;;;;9.48;79.64;-19465.97;5004089;28;45507;-85
2022/12/19 07:53:47;;;;;;;;;9.00;9.00;;;;;9.98;79.66;-19479.22;4988475;28;45371;-85
2022/12/19 07:56:13;;;;;;;;;8.00;8.00;;;;;9.73;79.57;-19472.72;4996632;28;45661;-86
2022/12/19 07:58:39;;;;;;;;;8.33;8.33;;;;;9.57;79.18;-19468.28;4998711;28;45600;-85
2022/12/19 08:01:05;;;;;;;;;9.00;7.00;;;;;9.38;78.94;-19463.41;4984609;28;46452;-86
2022/12/19 08:03:30;;;;;;;;;6.33;6.00;;;;;9.70;78.95;-19471.94;4980572;28;45605;-86
2022/12/19 08:06:00;;;;;;;;;8.67;7.67;;;;;10.10;79.32;-19482.31;4995282;28;45429;-86
2022/12/19 08:08:26;;;;;;;;;6.00;6.00;;;;;9.37;79.06;-19463.16;4988372;28;46451;-86
2022/12/19 08:10:52;;;;;;;;;10.00;8.33;;;;;9.88;78.97;-19476.50;4976828;28;45502;-87
2022/12/19 08:13:17;;;;;;;;;8.33;7.00;;;;;9.68;78.92;-19471.25;4987800;28;45325;-88
2022/12/19 08:15:43;;;;;;;;;8.00;8.00;;;;;9.64;78.56;-19470.31;4980432;28;45565;-86
2022/12/19 08:18:08;;;;;;;;;9.00;9.00;;;;;8.98;78.48;-19452.88;4978354;28;48497;-85
2022/12/19 08:20:33;;;;;;;;;7.67;6.67;;;;;9.90;78.44;-19477.06;4997719;28;45389;-85
2022/12/19 08:22:59;;;;;;;;;11.00;9.33;;;;;9.78;78.10;-19473.81;5003991;28;45474;-84
2022/12/19 08:25:24;;;;;;;;;10.00;8.67;;;;;10.14;78.27;-19483.53;4998742;28;45312;-84
2022/12/19 08:27:49;;;;;;;;;12.33;7.67;;;;;10.01;78.20;-19479.88;4997448;28;45416;-85
2022/12/19 08:30:15;;;;;;;;;8.67;8.00;;;;;10.02;77.83;-19480.31;4997776;28;45439;-87
2022/12/19 08:32:40;;;;;;;;;15.33;14.00;;;;;10.28;77.53;-19487.03;4994062;28;45383;-86
2022/12/19 08:35:06;;;;;;;;;9.00;9.00;;;;;10.20;77.76;-19484.88;4996061;28;45460;-86
2022/12/19 08:37:32;;;;;;;;;14.00;8.67;;;;;10.35;77.69;-19488.94;4996308;28;45687;-87
2022/12/19 08:39:57;;;;;;;;;7.00;7.00;;;;;9.88;77.14;-19476.50;4979068;28;45829;-86
2022/12/19 08:42:22;;;;;;;;;7.33;7.00;;;;;10.39;77.17;-19490.00;4994553;28;45324;-87
2022/12/19 08:44:48;;;;;;;;;12.00;12.00;;;;;10.18;77.42;-19484.34;4996304;28;45493;-86
2022/12/19 08:47:13;;;;;;;;;10.33;8.00;;;;;10.26;76.98;-19486.50;4994820;28;46872;-85
2022/12/19 08:49:39;;;;;;;;;8.67;8.00;;;;;10.50;77.15;-19492.97;4993842;28;45884;-84
2022/12/19 08:52:04;;;;;;;;;7.00;7.00;;;;;10.44;77.05;-19491.22;4992699;28;45545;-86
2022/12/19 08:54:30;;;;;;;;;7.33;7.00;;;;;9.60;76.52;-19469.09;4997261;28;45514;-86
2022/12/19 08:56:55;;;;;;;;;9.33;8.33;;;;;10.02;76.43;-19480.16;4993453;28;47398;-85
2022/12/19 08:59:21;;;;;;;;;8.67;8.00;;;;;10.57;76.02;-19494.75;4995211;28;45734;-84
2022/12/19 09:01:46;;;;;;;;;8.00;7.00;;;;;10.41;76.42;-19490.56;4995173;28;45546;-86
2022/12/19 09:04:11;;;;;;;;;6.00;6.00;;;;;10.76;75.71;-19499.88;4979312;28;45563;-84
2022/12/19 09:06:37;;;;;;;;;11.33;8.67;;;;;10.62;75.46;-19496.09;4993366;28;45585;-85
2022/12/19 09:09:03;;;;;;;;;8.67;7.00;;;;;10.83;75.70;-19501.63;4996315;28;45597;-85
2022/12/19 09:11:29;;;;;;;;;8.00;8.00;;;;;10.44;75.35;-19491.22;4996291;28;45471;-85
2022/12/19 09:13:56;;;;;;;;;8.67;8.33;;;;;10.43;75.44;-19490.97;4991789;28;45428;-84
2022/12/19 09:16:24;;;;;;;;;9.00;7.00;;;;;10.72;75.23;-19498.66;4996251;28;45507;-85
2022/12/19 09:18:52;;;;;;;;;9.33;9.00;;;;;10.97;74.75;-19505.25;4996516;28;45382;-84
2022/12/19 09:21:20;;;;;;;;;8.67;7.33;;;;;11.03;75.33;-19506.88;4996238;28;45336;-85
2022/12/19 09:23:50;;;;;;;;;9.67;7.67;;;;;10.87;74.88;-19502.69;4997357;28;45474;-86
2022/12/19 09:26:17;;;;;;;;;8.33;8.33;;;;;11.10;74.83;-19508.63;4994994;28;45792;-86
2022/12/19 09:28:45;;;;;;;;;7.33;7.33;;;;;11.14;74.58;-19509.72;4995008;28;45506;-87
2022/12/19 09:31:14;;;;;;;;;7.00;6.67;;;;;11.17;74.29;-19510.66;4996188;28;45598;-86
2022/12/19 09:33:40;;;;;;;;;8.00;7.00;;;;;11.20;74.85;-19511.31;4997311;28;45769;-84
2022/12/19 09:36:06;;;;;;;;;6.33;6.33;;;;;11.24;74.52;-19512.25;4995309;28;45939;-84
2022/12/19 09:38:33;;;;;;;;;9.00;7.67;;;;;11.01;74.13;-19506.34;4997294;28;45407;-88
2022/12/19 09:41:20;;;;;;;;;11.00;9.67;;;;;11.31;74.30;-19514.16;4995589;28;45519;-89
2022/12/19 09:44:04;;;;;;;;;4.67;4.67;;;;;11.32;74.33;-19514.56;4977929;28;45490;-88
2022/12/19 09:46:55;;;;;;;;;9.67;8.67;;;;;11.30;74.08;-19514.03;4990878;28;47307;-89
2022/12/19 09:49:28;;;;;;;;;12.00;8.33;;;;;11.31;74.01;-19514.16;4996393;28;45508;-89
2022/12/19 09:52:10;;;;;;;;;3.67;3.00;;;;;10.76;73.88;-19499.72;4996871;28;45405;-89
2022/12/19 09:54:43;;;;;;;;;10.00;9.00;;;;;11.33;73.75;-19514.69;4993316;28;45354;-89
2022/12/19 09:57:18;;;;;;;;;8.67;8.67;;;;;10.93;73.82;-19504.19;4995902;28;46570;-90
2022/12/19 09:59:53;;;;;;;;;14.33;11.67;;;;;10.91;73.88;-19503.63;4990657;28;45404;-89
2022/12/19 10:02:32;;;;;;;;;9.67;8.00;;;;;10.84;73.32;-19501.75;4976125;28;45328;-88
2022/12/19 10:05:40;;;;;;;;;13.00;11.00;;;;;11.31;73.33;-19514.16;4996230;28;45407;-89
2022/12/19 10:08:17;;;;;;;;;11.67;10.67;;;;;11.29;74.02;-19513.63;4991963;28;45717;-84
2022/12/19 10:11:27;;;;;;;;;12.00;12.00;;;;;11.30;73.53;-19514.03;4995190;28;45461;-89
2022/12/19 10:14:14;;;;;;;;;10.00;10.00;;;;;11.34;73.75;-19514.97;4891776;29;45445;-88
2022/12/19 10:16:51;;;;;;;;;8.00;8.00;;;;;11.34;73.44;-19514.97;4881417;29;45539;-90
2022/12/19 10:19:36;;;;;;;;;9.33;9.33;;;;;11.29;73.87;-19513.63;4877957;29;48286;-89
2022/12/19 10:22:16;;;;;;;;;12.00;9.67;;;;;11.17;73.60;-19510.53;4878799;29;46071;-89
2022/12/19 10:24:50;;;;;;;;;9.00;9.00;;;;;11.05;73.42;-19507.41;4882647;29;45632;-88
2022/12/19 10:27:21;;;;;;;;;7.00;7.00;;;;;11.51;73.00;-19519.53;4880434;29;45703;-90
2022/12/19 10:30:00;;;;;;;;;9.00;9.00;;;;;11.55;73.18;-19520.63;4877800;29;46134;-87
2022/12/19 10:33:00;;;;;;;;;11.00;10.00;;;;;11.56;73.16;-19520.75;4866467;29;46253;-88
2022/12/19 10:35:33;;;;;;;;;9.00;7.00;;;;;11.47;72.70;-19518.34;4874049;29;45628;-86
2022/12/19 10:38:09;;;;;;;;;11.00;9.00;;;;;11.60;72.83;-19521.97;4883068;29;45478;-88
2022/12/19 10:40:45;;;;;;;;;7.33;7.33;;;;;11.30;72.77;-19513.88;4863844;29;48181;-86
2022/12/19 10:43:35;;;;;;;;;11.33;8.67;;;;;11.24;72.89;-19512.41;4878118;29;45528;-84
2022/12/19 10:46:10;;;;;;;;;9.67;9.67;;;;;11.54;73.27;-19520.22;4981865;28;45495;-86
2022/12/19 10:48:35;;;;;;;;;9.00;8.00;;;;;11.05;72.37;-19507.41;4981777;28;45702;-86
2022/12/19 10:51:00;;;;;;;;;10.33;9.00;;;;;11.44;72.84;-19517.53;4993222;28;48218;-86
2022/12/19 10:53:30;;;;;;;;;8.00;8.00;;;;;11.72;72.73;-19525.06;4996045;28;45392;-88
2022/12/19 10:56:10;;;;;;;;;9.33;8.00;;;;;11.31;72.65;-19514.28;4996146;28;45605;-87
2022/12/19 10:58:40;;;;;;;;;7.67;6.33;;;;;11.75;72.83;-19525.75;4993558;28;45558;-87
2022/12/19 11:01:37;;;;;;;;;6.33;6.33;;;;;11.76;72.82;-19526.16;5006337;28;48378;-88
2022/12/19 11:04:31;;;;;;;;;9.00;8.00;;;;;11.59;72.63;-19521.69;4977305;28;45371;-85
2022/12/19 11:07:03;;;;;;;;;7.67;7.67;;;;;11.80;72.45;-19527.22;4980786;28;45328;-85
2022/12/19 11:09:29;;;;;;;;;6.00;6.00;;;;;11.84;72.86;-19528.16;4995033;28;45516;-84
2022/12/19 11:12:17;;;;;;;;;5.00;5.00;;;;;11.86;72.64;-19528.72;4989761;28;47254;-84
2022/12/19 11:15:13;;;;;;;;;5.67;5.67;;;;;11.88;72.30;-19529.25;4995937;28;47188;-84
2022/12/19 11:17:38;;;;;;;;;4.33;4.33;;;;;11.75;72.80;-19525.88;4998903;28;45261;-84
2022/12/19 11:20:19;;;;;;;;;5.33;5.33;;;;;11.87;72.94;-19528.84;4983134;28;45568;-84
2022/12/19 11:22:59;;;;;;;;;5.00;5.00;;;;;11.91;72.17;-19530.06;4999615;28;45706;-85
2022/12/19 11:25:42;;;;;;;;;4.33;4.33;;;;;11.88;72.56;-19529.25;4984791;28;45578;-85
2022/12/19 11:28:17;;;;;;;;;4.67;4.67;;;;;11.98;72.53;-19531.94;4978578;28;45320;-84
2022/12/19 11:30:43;;;;;;;;;5.00;5.00;;;;;12.00;72.51;-19532.47;4987875;28;46792;-83
2022/12/19 11:33:15;;;;;;;;;8.00;5.00;;;;;11.86;72.57;-19528.72;4993613;28;45951;-84
2022/12/19 11:35:47;;;;;;;;;5.67;5.00;;;;;12.10;72.53;-19535.03;4986258;28;45525;-83
2022/12/19 11:38:17;;;;;;;;;8.00;8.00;;;;;12.03;72.87;-19533.16;4996573;28;45522;-84
2022/12/19 11:40:54;;;;;;;;;7.00;5.00;;;;;12.20;72.57;-19537.75;4995655;28;45594;-83